createdAt,value
2023-04-20T00:01:13.973Z,6.13
2023-04-20T00:03:46.951Z,6.33
2023-04-20T00:06:14.083Z,6.37
2023-04-20T00:08:42.933Z,6.43
2023-04-20T00:11:11.217Z,7.23
2023-04-20T00:13:38.779Z,5.87
2023-04-20T00:16:07.276Z,6.33
2023-04-20T00:18:33.982Z,6.20
2023-04-20T00:21:00.767Z,6.70
2023-04-20T00:23:27.582Z,6.00
2023-04-20T00:25:54.581Z,6.50
2023-04-20T00:28:21.333Z,7.27
2023-04-20T00:30:48.330Z,6.97
2023-04-20T00:33:15.236Z,7.17
2023-04-20T00:35:44.642Z,6.23
2023-04-20T00:38:15.629Z,6.40
2023-04-20T00:40:48.026Z,7.17
2023-04-20T00:43:16.870Z,6.90
2023-04-20T00:45:51.451Z,6.63
2023-04-20T00:48:19.564Z,8.03
2023-04-20T00:50:47.358Z,6.50
2023-04-20T00:53:14.367Z,6.60
2023-04-20T00:55:43.765Z,6.90
2023-04-20T00:58:12.707Z,6.93
2023-04-20T01:00:40.637Z,6.67
2023-04-20T01:03:08.112Z,6.73
2023-04-20T01:05:35.669Z,7.03
2023-04-20T01:08:07.576Z,9.00
2023-04-20T01:10:38.268Z,7.83
2023-04-20T01:13:07.204Z,8.87
2023-04-20T01:15:35.363Z,8.63
2023-04-20T01:18:03.781Z,8.83
2023-04-20T01:20:30.740Z,9.27
2023-04-20T01:22:58.340Z,8.67
2023-04-20T01:25:29.911Z,8.67
2023-04-20T01:27:56.998Z,8.37
2023-04-20T01:30:31.831Z,9.40
2023-04-20T01:32:59.299Z,9.03
2023-04-20T01:35:26.428Z,8.90
2023-04-20T01:37:53.906Z,8.63
2023-04-20T01:40:23.361Z,8.73
2023-04-20T01:42:53.412Z,9.30
2023-04-20T01:45:22.544Z,8.53
2023-04-20T01:47:50.878Z,9.50
2023-04-20T01:50:17.751Z,8.40
2023-04-20T01:52:46.167Z,9.00
2023-04-20T01:55:13.469Z,9.33
2023-04-20T01:57:40.215Z,9.17
2023-04-20T02:00:09.045Z,10.40
2023-04-20T02:02:41.009Z,10.40
2023-04-20T02:05:08.460Z,10.33
2023-04-20T02:07:35.476Z,10.87
2023-04-20T02:10:03.591Z,11.93
2023-04-20T02:12:32.204Z,11.37
2023-04-20T02:14:59.099Z,12.07
2023-04-20T02:17:29.101Z,11.57
2023-04-20T02:19:56.861Z,11.80
2023-04-20T02:22:26.171Z,12.03
2023-04-20T02:24:53.620Z,11.60
2023-04-20T02:27:21.237Z,12.37
2023-04-20T02:29:48.243Z,10.87
2023-04-20T02:32:14.859Z,11.37
2023-04-20T02:34:41.743Z,11.43
2023-04-20T02:37:08.401Z,12.07
2023-04-20T02:39:51.243Z,10.97
2023-04-20T02:42:36.213Z,11.40
2023-04-20T02:45:06.710Z,11.80
2023-04-20T02:47:44.576Z,11.17
2023-04-20T02:53:11.605Z,11.40
2023-04-20T02:58:57.057Z,11.70
2023-04-20T03:01:47.153Z,11.73
2023-04-20T03:04:16.679Z,12.17
2023-04-20T03:06:53.786Z,13.30
2023-04-20T03:09:26.481Z,12.50
2023-04-20T03:11:58.047Z,12.27
2023-04-20T03:15:00.210Z,12.23
2023-04-20T03:17:44.140Z,12.37
2023-04-20T03:20:11.661Z,12.37
2023-04-20T03:22:38.538Z,11.80
2023-04-20T03:25:07.781Z,12.30
2023-04-20T03:27:51.227Z,13.33
2023-04-20T03:30:19.171Z,12.07
2023-04-20T03:32:50.350Z,12.60
2023-04-20T03:35:17.853Z,11.93
2023-04-20T03:37:44.724Z,11.43
2023-04-20T03:40:11.914Z,12.13
2023-04-20T03:42:38.627Z,12.37
2023-04-20T03:45:06.666Z,11.53
2023-04-20T03:47:33.468Z,11.27
2023-04-20T03:50:00.227Z,11.03
2023-04-20T03:52:27.141Z,11.07
2023-04-20T03:54:53.808Z,12.20
2023-04-20T03:57:20.476Z,12.50
2023-04-20T03:59:48.423Z,12.97
2023-04-20T04:02:18.880Z,11.50
2023-04-20T04:04:47.007Z,10.43
2023-04-20T04:07:13.846Z,11.80
2023-04-20T04:09:42.428Z,11.80
2023-04-20T04:12:09.600Z,11.03
2023-04-20T04:14:36.340Z,12.00
2023-04-20T04:17:03.703Z,11.27
2023-04-20T04:19:32.397Z,10.40
2023-04-20T04:21:59.634Z,10.40
2023-04-20T04:24:26.861Z,11.60
2023-04-20T04:27:05.337Z,11.23
2023-04-20T04:29:38.565Z,10.77
2023-04-20T04:32:09.662Z,10.50
2023-04-20T04:34:37.766Z,10.47
2023-04-20T04:37:04.870Z,10.87
2023-04-20T04:39:46.358Z,10.80
2023-04-20T04:42:19.240Z,10.90
2023-04-20T04:44:47.210Z,11.13
2023-04-20T04:47:22.117Z,10.93
2023-04-20T04:49:49.709Z,11.50
2023-04-20T04:52:16.367Z,10.93
2023-04-20T04:54:43.105Z,11.03
2023-04-20T04:57:09.727Z,11.53
2023-04-20T04:59:36.521Z,12.10
2023-04-20T05:02:03.318Z,12.40
2023-04-20T05:04:30.220Z,12.27
2023-04-20T05:06:57.035Z,11.57
2023-04-20T05:09:23.774Z,12.13
2023-04-20T05:11:50.422Z,13.37
2023-04-20T05:14:17.086Z,12.03
2023-04-20T05:16:43.918Z,12.70
2023-04-20T05:19:10.803Z,12.50
2023-04-20T05:21:39.301Z,13.00
2023-04-20T05:24:06.575Z,14.03
2023-04-20T05:26:33.345Z,13.03
2023-04-20T05:29:00.042Z,13.37
2023-04-20T05:31:26.807Z,14.80
2023-04-20T05:33:53.513Z,14.83
2023-04-20T05:36:20.786Z,15.37
2023-04-20T05:38:47.501Z,15.93
2023-04-20T05:41:14.201Z,16.50
2023-04-20T05:43:41.084Z,16.87
2023-04-20T05:46:07.694Z,17.43
2023-04-20T05:48:34.376Z,17.87
2023-04-20T05:51:01.099Z,17.27
2023-04-20T05:53:27.800Z,16.53
2023-04-20T05:55:54.544Z,17.43
2023-04-20T05:58:21.233Z,17.30
2023-04-20T06:00:47.902Z,17.03
2023-04-20T06:03:14.792Z,17.70
2023-04-20T06:05:41.680Z,18.33
2023-04-20T06:08:08.418Z,17.20
2023-04-20T06:10:35.226Z,17.40
2023-04-20T06:13:01.935Z,17.03
2023-04-20T06:15:28.658Z,18.20
2023-04-20T06:17:55.393Z,18.30
2023-04-20T06:20:22.159Z,16.70
2023-04-20T06:22:48.916Z,16.83
2023-04-20T06:25:16.009Z,17.23
2023-04-20T06:27:42.816Z,16.87
2023-04-20T06:30:10.115Z,17.20
2023-04-20T06:32:37.974Z,17.20
2023-04-20T06:35:07.871Z,17.90
2023-04-20T06:37:37.701Z,17.77
2023-04-20T06:40:08.950Z,17.60
2023-04-20T06:42:36.276Z,18.03
2023-04-20T06:45:06.759Z,17.80
2023-04-20T06:47:34.098Z,17.10
2023-04-20T06:50:02.221Z,18.07
2023-04-20T06:52:30.625Z,16.80
2023-04-20T06:54:59.389Z,17.90
2023-04-20T06:57:28.530Z,17.87
2023-04-20T06:59:55.219Z,17.33
2023-04-20T07:02:21.937Z,18.07
2023-04-20T07:04:48.883Z,18.03
2023-04-20T07:07:15.688Z,18.00
2023-04-20T07:09:42.406Z,18.53
2023-04-20T07:12:09.518Z,19.47
2023-04-20T07:14:36.188Z,18.00
2023-04-20T07:17:02.901Z,17.37
2023-04-20T07:19:29.618Z,17.10
2023-04-20T07:21:56.252Z,18.23
2023-04-20T07:24:22.892Z,17.63
2023-04-20T07:26:49.808Z,17.67
2023-04-20T07:29:19.018Z,18.37
2023-04-20T07:31:46.060Z,18.87
2023-04-20T07:34:12.800Z,17.80
2023-04-20T07:36:39.499Z,17.80
2023-04-20T07:39:06.261Z,19.10
2023-04-20T07:41:32.971Z,18.57
2023-04-20T07:43:59.785Z,18.23
2023-04-20T07:46:28.410Z,19.67
2023-04-20T07:48:55.123Z,19.53
2023-04-20T07:51:21.788Z,18.00
2023-04-20T07:53:48.571Z,19.37
2023-04-20T07:56:15.474Z,19.07
2023-04-20T07:58:42.155Z,18.83
2023-04-20T08:01:08.852Z,19.63
2023-04-20T08:03:36.404Z,18.93
2023-04-20T08:06:03.597Z,18.27
2023-04-20T08:08:30.439Z,18.23
2023-04-20T08:10:58.936Z,18.13
2023-04-20T08:13:26.030Z,17.90
2023-04-20T08:15:52.794Z,18.57
2023-04-20T08:18:21.181Z,18.13
2023-04-20T08:20:48.157Z,17.77
2023-04-20T08:23:14.818Z,17.87
2023-04-20T08:25:41.486Z,17.80
2023-04-20T08:28:12.025Z,17.70
2023-04-20T08:30:42.263Z,18.23
2023-04-20T08:33:08.992Z,18.40
2023-04-20T08:35:38.000Z,18.23
2023-04-20T08:38:04.659Z,18.17
2023-04-20T08:40:32.049Z,16.87
2023-04-20T08:43:01.577Z,17.73
2023-04-20T08:45:29.184Z,15.90
2023-04-20T08:47:59.811Z,18.30
2023-04-20T08:50:26.611Z,18.60
2023-04-20T08:52:53.228Z,17.60
2023-04-20T08:55:19.966Z,17.47
2023-04-20T08:57:49.062Z,16.90
2023-04-20T09:00:16.317Z,16.97
2023-04-20T09:02:54.523Z,17.83
2023-04-20T09:05:30.053Z,18.87
2023-04-20T09:07:59.100Z,18.67
2023-04-20T09:10:27.646Z,18.67
2023-04-20T09:12:54.378Z,18.70
2023-04-20T09:15:28.363Z,19.37
2023-04-20T09:17:55.766Z,19.93
2023-04-20T09:20:34.013Z,19.50
2023-04-20T09:23:13.613Z,20.27
2023-04-20T09:25:42.705Z,19.67
2023-04-20T09:28:09.923Z,18.93
2023-04-20T09:30:40.366Z,19.30
2023-04-20T09:33:08.655Z,18.33
2023-04-20T09:35:36.210Z,18.07
2023-04-20T09:38:02.885Z,19.07
2023-04-20T09:40:30.474Z,18.77
2023-04-20T09:42:59.458Z,18.10
2023-04-20T09:45:26.289Z,19.27
2023-04-20T09:47:53.214Z,19.53
2023-04-20T09:50:29.073Z,19.63
2023-04-20T09:53:00.342Z,19.37
2023-04-20T09:55:27.526Z,18.97
2023-04-20T09:57:54.416Z,19.13
2023-04-20T10:00:21.708Z,21.13
2023-04-20T10:02:48.614Z,19.27
2023-04-20T10:05:16.929Z,19.83
2023-04-20T10:07:44.193Z,20.77
2023-04-20T10:10:16.100Z,20.70
2023-04-20T10:12:50.341Z,20.40
2023-04-20T10:15:17.320Z,20.87
2023-04-20T10:17:44.531Z,19.00
2023-04-20T10:20:25.653Z,18.70
2023-04-20T10:22:53.098Z,19.03
2023-04-20T10:25:24.373Z,20.50
2023-04-20T10:27:55.528Z,19.13
2023-04-20T10:30:23.299Z,19.07
2023-04-20T10:32:50.688Z,18.97
2023-04-20T10:35:17.583Z,19.07
2023-04-20T10:37:49.552Z,19.73
2023-04-20T10:40:16.756Z,19.50
2023-04-20T10:42:44.766Z,18.87
2023-04-20T10:45:12.223Z,17.10
2023-04-20T10:47:40.842Z,17.77
2023-04-20T10:50:12.556Z,18.73
2023-04-20T10:52:41.090Z,18.00
2023-04-20T10:55:22.035Z,17.90
2023-04-20T10:57:49.525Z,15.43
2023-04-20T11:00:22.042Z,14.70
2023-04-20T11:02:54.214Z,16.53
2023-04-20T11:05:23.638Z,20.07
2023-04-20T11:08:01.226Z,19.23
2023-04-20T11:10:42.478Z,17.03
2023-04-20T11:13:25.835Z,18.07
2023-04-20T11:15:52.729Z,18.20
2023-04-20T11:18:19.542Z,18.33
2023-04-20T11:20:52.865Z,18.67
2023-04-20T11:23:21.338Z,18.17
2023-04-20T11:25:57.581Z,15.67
2023-04-20T11:28:25.910Z,13.57
2023-04-20T11:30:52.866Z,13.13
2023-04-20T11:33:29.906Z,13.93
2023-04-20T11:36:00.980Z,15.50
2023-04-20T11:38:28.599Z,16.40
2023-04-20T11:40:56.052Z,15.53
2023-04-20T11:43:22.945Z,14.73
2023-04-20T11:45:49.603Z,15.67
2023-04-20T11:48:16.284Z,15.40
2023-04-20T11:50:43.285Z,15.70
2023-04-20T11:53:14.072Z,15.97
2023-04-20T11:55:41.855Z,15.97
2023-04-20T11:58:08.746Z,14.07
2023-04-20T12:00:35.572Z,14.00
2023-04-20T12:03:02.488Z,14.60
2023-04-20T12:05:29.745Z,14.37
2023-04-20T12:07:56.775Z,14.80
2023-04-20T12:10:23.580Z,15.57
2023-04-20T12:12:50.282Z,14.03
2023-04-20T12:15:17.127Z,14.27
2023-04-20T12:17:43.780Z,14.70
2023-04-20T12:20:12.528Z,12.87
2023-04-20T12:22:39.297Z,14.43
2023-04-20T12:25:06.850Z,13.83
2023-04-20T12:27:33.509Z,13.30
2023-04-20T12:30:00.396Z,12.67
2023-04-20T12:32:27.170Z,12.17
2023-04-20T12:34:53.871Z,12.80
2023-04-20T12:37:20.827Z,11.17
2023-04-20T12:39:47.551Z,13.33
2023-04-20T12:42:14.264Z,13.10
2023-04-20T12:44:40.979Z,12.40
2023-04-20T12:47:10.067Z,12.57
2023-04-20T12:49:39.350Z,13.73
2023-04-20T12:52:07.922Z,13.50
2023-04-20T12:54:34.853Z,12.13
2023-04-20T12:57:02.533Z,12.07
2023-04-20T12:59:29.273Z,13.50
2023-04-20T13:01:56.030Z,12.97
2023-04-20T13:04:23.304Z,12.60
2023-04-20T13:06:50.416Z,14.60
2023-04-20T13:09:17.080Z,14.13
2023-04-20T13:11:43.810Z,13.43
2023-04-20T13:14:10.523Z,11.70
2023-04-20T13:16:37.692Z,9.63
2023-04-20T13:19:04.457Z,9.53
2023-04-20T13:21:31.092Z,9.83
2023-04-20T13:23:57.757Z,11.03
2023-04-20T13:26:24.428Z,8.30
2023-04-20T13:28:51.041Z,8.87
2023-04-20T13:31:17.805Z,9.67
2023-04-20T13:33:44.508Z,9.50
2023-04-20T13:36:11.456Z,10.00
2023-04-20T13:38:38.096Z,9.03
2023-04-20T13:41:05.016Z,10.87
2023-04-20T13:43:31.590Z,10.50
2023-04-20T13:45:58.327Z,9.10
2023-04-20T13:48:27.798Z,11.10
2023-04-20T13:50:54.765Z,12.57
2023-04-20T13:53:21.993Z,12.60
2023-04-20T13:55:48.742Z,10.57
2023-04-20T13:58:15.367Z,9.90
2023-04-20T14:00:41.998Z,9.80
2023-04-20T14:03:12.077Z,10.43
2023-04-20T14:05:39.045Z,10.27
2023-04-20T14:08:06.932Z,9.40
2023-04-20T14:10:34.088Z,8.90
2023-04-20T14:13:01.594Z,8.03
2023-04-20T14:15:28.323Z,6.40
2023-04-20T14:17:55.077Z,5.40
2023-04-20T14:20:21.802Z,5.37
2023-04-20T14:22:48.488Z,5.23
2023-04-20T14:25:15.048Z,4.87
2023-04-20T14:27:41.684Z,6.27
2023-04-20T14:30:09.176Z,5.87
2023-04-20T14:32:36.245Z,5.90
2023-04-20T14:35:05.623Z,6.07
2023-04-20T14:37:33.264Z,6.77
2023-04-20T14:39:59.961Z,6.37
2023-04-20T14:42:26.711Z,6.77
2023-04-20T14:44:53.615Z,7.23
2023-04-20T14:47:20.830Z,8.30
2023-04-20T14:49:47.974Z,7.50
2023-04-20T14:52:14.757Z,7.00
2023-04-20T14:54:41.345Z,7.00
2023-04-20T14:57:08.019Z,8.00
2023-04-20T14:59:34.687Z,9.37
2023-04-20T15:02:03.274Z,8.23
2023-04-20T15:04:30.782Z,8.23
2023-04-20T15:06:57.739Z,7.57
2023-04-20T15:09:24.444Z,7.77
2023-04-20T15:11:51.089Z,7.17
2023-04-20T15:14:17.796Z,7.40
2023-04-20T15:16:44.588Z,7.43
2023-04-20T15:19:11.247Z,7.50
2023-04-20T15:21:37.917Z,7.27
2023-04-20T15:24:04.805Z,7.20
2023-04-20T15:26:31.445Z,8.00
2023-04-20T15:28:58.041Z,6.33
2023-04-20T15:31:24.687Z,6.43
2023-04-20T15:33:51.465Z,6.10
2023-04-20T15:36:19.438Z,5.70
2023-04-20T15:38:46.442Z,6.13
2023-04-20T15:41:13.198Z,6.47
2023-04-20T15:43:39.849Z,6.50
2023-04-20T15:46:06.653Z,7.07
2023-04-20T15:48:33.336Z,7.23
2023-04-20T15:51:00.036Z,6.77
2023-04-20T15:53:26.779Z,6.93
2023-04-20T15:55:53.485Z,6.57
2023-04-20T15:58:20.160Z,7.10
2023-04-20T16:00:46.881Z,6.10
2023-04-20T16:03:13.718Z,6.17
2023-04-20T16:05:40.524Z,6.30
2023-04-20T16:08:07.275Z,6.37
2023-04-20T16:10:34.276Z,6.70
2023-04-20T16:13:00.983Z,6.77
2023-04-20T16:15:27.712Z,6.83
2023-04-20T16:17:54.837Z,6.93
2023-04-20T16:20:21.589Z,6.67
2023-04-20T16:22:48.276Z,7.10
2023-04-20T16:25:22.616Z,6.30
2023-04-20T16:27:51.512Z,6.90
2023-04-20T16:30:18.381Z,6.93
2023-04-20T16:32:45.122Z,6.80
2023-04-20T16:35:11.891Z,6.93
2023-04-20T16:37:38.646Z,6.73
2023-04-20T16:40:06.214Z,6.87
2023-04-20T16:42:34.302Z,6.70
2023-04-20T16:45:01.307Z,7.40
2023-04-20T16:47:28.025Z,6.97
2023-04-20T16:49:56.007Z,6.60
2023-04-20T16:52:22.698Z,6.57
2023-04-20T16:54:49.348Z,6.57
2023-04-20T16:57:16.005Z,6.37
2023-04-20T16:59:44.059Z,6.73
2023-04-20T17:02:12.478Z,6.60
2023-04-20T17:04:39.207Z,6.17
2023-04-20T17:07:06.305Z,6.40
2023-04-20T17:09:33.039Z,6.73
2023-04-20T17:11:59.801Z,6.30
2023-04-20T17:14:26.532Z,6.50
2023-04-20T17:16:54.285Z,6.43
2023-04-20T17:19:21.135Z,6.60
2023-04-20T17:21:47.866Z,7.50
2023-04-20T17:24:14.657Z,6.93
2023-04-20T17:26:41.306Z,7.10
2023-04-20T17:29:08.109Z,7.20
2023-04-20T17:31:34.845Z,7.27
2023-04-20T17:34:01.562Z,7.57
2023-04-20T17:36:28.201Z,7.37
2023-04-20T17:38:54.842Z,7.87
2023-04-20T17:41:21.472Z,7.87
2023-04-20T17:43:50.865Z,7.30
2023-04-20T17:46:17.569Z,7.40
2023-04-20T17:48:44.365Z,7.37
2023-04-20T17:51:13.694Z,7.90
2023-04-20T17:53:40.390Z,7.50
2023-04-20T17:56:07.080Z,6.83
2023-04-20T17:58:33.697Z,7.47
2023-04-20T18:01:00.368Z,7.57
2023-04-20T18:03:28.171Z,7.53
2023-04-20T18:05:54.986Z,7.80
2023-04-20T18:08:23.273Z,8.47
2023-04-20T18:10:50.065Z,9.03
2023-04-20T18:13:16.742Z,8.23
2023-04-20T18:15:43.723Z,8.30
2023-04-20T18:18:10.472Z,8.57
2023-04-20T18:20:37.108Z,8.57
2023-04-20T18:23:03.726Z,8.47
2023-04-20T18:25:30.412Z,8.93
2023-04-20T18:27:57.110Z,9.13
2023-04-20T18:30:23.795Z,9.30
2023-04-20T18:32:50.495Z,9.23
2023-04-20T18:35:17.235Z,9.30
2023-04-20T18:37:43.868Z,9.97
2023-04-20T18:40:11.005Z,9.40
2023-04-20T18:42:37.673Z,8.27
2023-04-20T18:45:06.182Z,8.77
2023-04-20T18:47:32.851Z,7.80
2023-04-20T18:49:59.576Z,7.97
2023-04-20T18:52:26.322Z,8.57
2023-04-20T18:54:55.388Z,7.90
2023-04-20T18:57:26.162Z,8.03
2023-04-20T18:59:53.062Z,8.20
2023-04-20T19:02:20.550Z,8.17
2023-04-20T19:04:47.352Z,8.20
2023-04-20T19:07:14.000Z,7.63
2023-04-20T19:09:40.758Z,7.73
2023-04-20T19:12:07.513Z,7.80
2023-04-20T19:14:34.279Z,8.40
2023-04-20T19:17:04.038Z,8.43
2023-04-20T19:19:30.729Z,8.07
2023-04-20T19:21:59.034Z,9.57
2023-04-20T19:24:25.840Z,10.40
2023-04-20T19:26:52.975Z,10.03
2023-04-20T19:29:19.735Z,9.80
2023-04-20T19:31:46.421Z,10.47
2023-04-20T19:34:13.518Z,10.83
2023-04-20T19:36:41.828Z,10.13
2023-04-20T19:39:09.234Z,10.77
2023-04-20T19:41:35.937Z,10.60
2023-04-20T19:44:06.188Z,11.27
2023-04-20T19:46:33.710Z,11.83
2023-04-20T19:49:03.307Z,10.73
2023-04-20T19:51:31.467Z,10.77
2023-04-20T19:54:01.903Z,11.03
2023-04-20T19:56:28.636Z,10.67
2023-04-20T19:58:55.355Z,11.07
2023-04-20T20:01:22.018Z,9.40
2023-04-20T20:03:48.843Z,10.77
2023-04-20T20:06:15.874Z,10.37
2023-04-20T20:08:42.706Z,9.40
2023-04-20T20:11:09.429Z,9.50
2023-04-20T20:13:36.028Z,9.37
2023-04-20T20:16:02.834Z,9.80
2023-04-20T20:18:29.484Z,9.17
2023-04-20T20:20:56.129Z,9.33
2023-04-20T20:23:22.786Z,9.57
2023-04-20T20:25:49.429Z,9.97
2023-04-20T20:28:16.110Z,9.17
2023-04-20T20:30:45.210Z,9.80
2023-04-20T20:33:12.507Z,9.90
2023-04-20T20:35:39.901Z,10.40
2023-04-20T20:38:07.790Z,10.57
2023-04-20T20:40:35.051Z,10.53
2023-04-20T20:43:02.129Z,9.77
2023-04-20T20:45:28.984Z,10.80
2023-04-20T20:47:55.840Z,15.47
2023-04-20T20:50:23.034Z,11.40
2023-04-20T20:52:49.883Z,11.87
2023-04-20T20:55:16.541Z,12.30
2023-04-20T20:57:43.270Z,13.07
2023-04-20T21:00:11.978Z,12.40
2023-04-20T21:02:39.082Z,12.00
2023-04-20T21:05:06.330Z,13.00
2023-04-20T21:07:33.101Z,14.03
2023-04-20T21:10:00.049Z,14.70
2023-04-20T21:12:26.678Z,13.80
2023-04-20T21:14:53.406Z,14.87
2023-04-20T21:17:20.397Z,13.50
2023-04-20T21:19:47.249Z,13.07
2023-04-20T21:22:13.987Z,12.80
2023-04-20T21:24:40.914Z,13.47
2023-04-20T21:27:07.548Z,12.17
2023-04-20T21:29:34.190Z,11.37
2023-04-20T21:32:00.853Z,10.43
2023-04-20T21:34:27.837Z,12.30
2023-04-20T21:36:54.735Z,11.17
2023-04-20T21:39:21.450Z,11.17
2023-04-20T21:41:48.191Z,11.20
2023-04-20T21:44:14.839Z,11.00
2023-04-20T21:46:41.634Z,11.40
2023-04-20T21:59:52.126Z,12.17
2023-04-20T22:02:19.446Z,12.00
2023-04-20T22:04:46.525Z,12.37
2023-04-20T22:07:14.667Z,12.87
2023-04-20T22:09:43.926Z,11.67
2023-04-20T22:12:13.314Z,12.00
2023-04-20T22:14:43.764Z,12.37
2023-04-20T22:17:12.535Z,12.70
2023-04-20T22:19:54.973Z,12.97
2023-04-20T22:22:23.496Z,12.87
2023-04-20T22:24:51.052Z,11.70
2023-04-20T22:27:18.386Z,12.07
2023-04-20T22:29:45.414Z,12.77
2023-04-20T22:32:12.306Z,12.17
2023-04-20T22:34:39.270Z,13.60
2023-04-20T22:37:09.125Z,13.17
2023-04-20T22:39:36.640Z,14.00
2023-04-20T22:50:14.759Z,13.23
2023-04-20T22:52:41.761Z,13.93
2023-04-20T22:55:09.697Z,13.83
2023-04-20T22:57:39.156Z,13.77
2023-04-20T23:00:10.274Z,13.83
2023-04-20T23:02:37.764Z,15.10
2023-04-20T23:05:06.480Z,14.13
2023-04-20T23:07:33.504Z,14.77
2023-04-20T23:10:00.485Z,15.53
2023-04-20T23:12:29.481Z,15.40
2023-04-20T23:15:00.538Z,14.67
2023-04-20T23:17:28.466Z,14.37
2023-04-20T23:19:56.567Z,14.17
2023-04-20T23:22:23.869Z,14.63
2023-04-20T23:24:50.885Z,14.33
2023-04-20T23:27:19.319Z,14.17
2023-04-20T23:29:46.480Z,15.33
2023-04-20T23:32:13.432Z,14.93
2023-04-20T23:34:40.323Z,14.77
2023-04-20T23:37:07.056Z,16.00
2023-04-20T23:39:37.995Z,15.23
2023-04-20T23:42:05.701Z,15.90
2023-04-20T23:44:32.525Z,15.37
2023-04-20T23:47:00.135Z,15.13
2023-04-20T23:49:27.161Z,15.33
2023-04-20T23:55:19.170Z,15.10
2023-04-20T23:57:47.652Z,13.90
